createdAt,value
2018-09-18T00:00:05.430Z,18.43
2018-09-18T00:02:33.658Z,18.51
2018-09-18T00:05:02.349Z,18.43
2018-09-18T00:07:30.719Z,18.56
2018-09-18T00:09:58.946Z,18.30
2018-09-18T00:12:27.176Z,18.36
2018-09-18T00:14:55.418Z,18.20
2018-09-18T00:17:23.635Z,18.47
2018-09-18T00:19:51.853Z,18.40
2018-09-18T00:22:20.103Z,18.44
2018-09-18T00:24:48.339Z,18.33
2018-09-18T00:27:16.553Z,18.37
2018-09-18T00:29:44.769Z,18.22
2018-09-18T00:32:12.994Z,18.25
2018-09-18T00:34:41.222Z,18.35
2018-09-18T00:37:09.456Z,18.37
2018-09-18T00:39:37.710Z,18.34
2018-09-18T00:42:05.956Z,18.23
2018-09-18T00:44:34.198Z,18.18
2018-09-18T00:47:02.423Z,18.06
2018-09-18T00:49:30.666Z,18.13
2018-09-18T00:51:58.892Z,17.93
2018-09-18T00:54:27.105Z,18.09
2018-09-18T00:56:55.377Z,18.12
2018-09-18T00:59:23.593Z,18.06
2018-09-18T01:01:52.597Z,17.99
2018-09-18T01:04:20.910Z,18.16
2018-09-18T01:06:49.169Z,18.04
2018-09-18T01:09:17.382Z,18.11
2018-09-18T01:11:45.613Z,18.08
2018-09-18T01:14:13.841Z,17.82
2018-09-18T01:16:42.075Z,17.78
2018-09-18T01:19:10.289Z,17.96
2018-09-18T01:21:38.550Z,17.93
2018-09-18T01:24:06.773Z,17.97
2018-09-18T01:26:35.002Z,17.87
2018-09-18T01:29:03.235Z,17.98
2018-09-18T01:31:31.457Z,17.85
2018-09-18T01:33:59.673Z,18.00
2018-09-18T01:36:27.925Z,18.02
2018-09-18T01:38:56.160Z,18.09
2018-09-18T01:41:24.389Z,18.10
2018-09-18T01:43:52.662Z,18.17
2018-09-18T01:46:20.834Z,18.06
2018-09-18T01:48:49.062Z,17.97
2018-09-18T01:51:17.264Z,18.00
2018-09-18T01:53:45.485Z,17.92
2018-09-18T01:56:13.713Z,18.00
2018-09-18T01:58:41.934Z,17.86
2018-09-18T02:01:10.158Z,17.78
2018-09-18T02:03:38.406Z,17.83
2018-09-18T02:06:06.708Z,17.88
2018-09-18T02:08:34.905Z,17.84
2018-09-18T02:11:03.159Z,17.80
2018-09-18T02:13:31.357Z,17.81
2018-09-18T02:15:59.593Z,17.77
2018-09-18T02:18:27.814Z,17.72
2018-09-18T02:20:56.030Z,17.78
2018-09-18T02:23:24.248Z,17.73
2018-09-18T02:25:52.474Z,17.69
2018-09-18T02:28:20.685Z,17.62
2018-09-18T02:30:48.914Z,17.57
2018-09-18T02:33:17.143Z,17.65
2018-09-18T02:35:45.349Z,17.74
2018-09-18T02:38:13.592Z,17.76
2018-09-18T02:40:41.814Z,17.80
2018-09-18T02:43:10.045Z,17.58
2018-09-18T02:45:38.470Z,17.64
2018-09-18T02:48:06.692Z,17.77
2018-09-18T02:50:34.902Z,17.65
2018-09-18T02:53:03.138Z,17.69
2018-09-18T02:55:31.350Z,17.78
2018-09-18T02:57:59.574Z,17.70
2018-09-18T03:00:27.798Z,17.66
2018-09-18T03:02:56.012Z,17.58
2018-09-18T03:05:24.259Z,17.50
2018-09-18T03:07:52.468Z,17.65
2018-09-18T03:10:20.697Z,17.56
2018-09-18T03:12:48.920Z,17.72
2018-09-18T03:15:17.164Z,17.60
2018-09-18T03:17:45.380Z,17.49
2018-09-18T03:20:13.634Z,17.56
2018-09-18T03:22:41.831Z,17.60
2018-09-18T03:25:10.086Z,17.63
2018-09-18T03:27:38.304Z,17.64
2018-09-18T03:30:06.554Z,17.63
2018-09-18T03:32:34.766Z,17.49
2018-09-18T03:35:02.977Z,17.45
2018-09-18T03:37:31.227Z,17.65
2018-09-18T03:39:59.462Z,17.61
2018-09-18T03:42:27.702Z,17.73
2018-09-18T03:44:55.918Z,17.42
2018-09-18T03:47:24.139Z,17.60
2018-09-18T03:49:53.301Z,17.52
2018-09-18T03:52:21.529Z,17.18
2018-09-18T03:54:49.813Z,17.40
2018-09-18T03:57:18.027Z,17.43
2018-09-18T03:59:46.276Z,17.46
2018-09-18T04:02:14.498Z,17.40
2018-09-18T04:04:43.798Z,17.29
2018-09-18T04:07:12.023Z,17.19
2018-09-18T04:09:40.246Z,17.35
2018-09-18T04:12:08.450Z,17.31
2018-09-18T04:14:36.673Z,17.43
2018-09-18T04:17:04.997Z,17.27
2018-09-18T04:19:33.241Z,17.41
2018-09-18T04:22:01.466Z,17.47
2018-09-18T04:24:30.698Z,17.54
2018-09-18T04:26:58.920Z,17.50
2018-09-18T04:29:27.125Z,17.48
2018-09-18T04:31:55.358Z,17.51
2018-09-18T04:34:23.582Z,17.49
2018-09-18T04:36:52.878Z,17.39
2018-09-18T04:39:21.158Z,17.42
2018-09-18T04:41:50.456Z,17.25
2018-09-18T04:44:18.673Z,17.28
2018-09-18T04:46:46.900Z,17.24
2018-09-18T04:49:15.145Z,17.17
2018-09-18T04:51:43.446Z,17.10
2018-09-18T04:54:11.674Z,17.25
2018-09-18T04:56:39.890Z,17.16
2018-09-18T04:59:08.179Z,16.99
2018-09-18T05:01:36.481Z,16.92
2018-09-18T05:04:04.721Z,17.08
2018-09-18T05:06:33.029Z,17.09
2018-09-18T05:09:01.249Z,17.08
2018-09-18T05:11:29.549Z,17.00
2018-09-18T05:13:57.927Z,17.01
2018-09-18T05:16:26.081Z,17.02
2018-09-18T05:18:54.445Z,17.02
2018-09-18T05:21:23.697Z,17.11
2018-09-18T05:23:51.935Z,17.04
2018-09-18T05:26:20.146Z,17.19
2018-09-18T05:28:49.389Z,17.11
2018-09-18T05:31:17.686Z,16.92
2018-09-18T05:33:47.068Z,17.03
2018-09-18T05:36:15.282Z,16.91
2018-09-18T05:38:43.582Z,17.10
2018-09-18T05:41:11.860Z,17.10
2018-09-18T05:43:41.193Z,17.15
2018-09-18T05:46:10.494Z,17.19
2018-09-18T05:48:38.790Z,17.15
2018-09-18T05:51:07.105Z,17.20
2018-09-18T05:53:35.326Z,17.19
2018-09-18T05:56:04.574Z,17.33
2018-09-18T05:58:32.798Z,17.44
2018-09-18T06:01:01.040Z,17.32
2018-09-18T06:03:29.332Z,17.42
2018-09-18T06:05:57.559Z,17.52
2018-09-18T06:08:25.777Z,17.55
2018-09-18T06:10:54.087Z,17.60
2018-09-18T06:13:22.319Z,17.73
2018-09-18T06:15:50.565Z,17.76
2018-09-18T06:18:18.884Z,17.83
2018-09-18T06:20:47.089Z,17.91
2018-09-18T06:23:15.344Z,17.89
2018-09-18T06:25:43.575Z,18.08
2018-09-18T06:28:11.791Z,18.11
2018-09-18T06:30:40.002Z,18.17
2018-09-18T06:33:08.446Z,18.28
2018-09-18T06:35:36.681Z,18.41
2018-09-18T06:38:04.990Z,18.56
2018-09-18T06:40:33.216Z,18.65
2018-09-18T06:43:01.434Z,18.76
2018-09-18T06:45:29.666Z,19.00
2018-09-18T06:47:57.913Z,19.20
2018-09-18T06:50:26.119Z,19.37
2018-09-18T06:52:54.348Z,19.53
2018-09-18T06:55:22.581Z,19.65
2018-09-18T06:57:50.812Z,19.74
2018-09-18T07:00:19.947Z,19.84
2018-09-18T07:02:49.214Z,20.08
2018-09-18T07:05:17.442Z,20.21
2018-09-18T07:07:45.658Z,20.70
2018-09-18T07:10:13.897Z,20.73
2018-09-18T07:12:42.142Z,21.13
2018-09-18T07:15:10.367Z,21.27
2018-09-18T07:17:38.582Z,21.41
2018-09-18T07:20:07.062Z,21.53
2018-09-18T07:22:35.278Z,21.66
2018-09-18T07:25:03.503Z,21.69
2018-09-18T07:27:31.773Z,21.98
2018-09-18T07:30:00.002Z,22.09
2018-09-18T07:32:28.201Z,22.07
2018-09-18T07:34:56.423Z,22.55
2018-09-18T07:37:24.621Z,22.42
2018-09-18T07:39:52.855Z,22.56
2018-09-18T07:42:21.065Z,22.81
2018-09-18T07:44:49.289Z,22.79
2018-09-18T07:47:17.501Z,22.94
2018-09-18T07:49:45.734Z,23.25
2018-09-18T07:52:14.003Z,23.03
2018-09-18T07:54:42.165Z,23.52
2018-09-18T07:57:10.378Z,23.54
2018-09-18T07:59:38.606Z,23.91
2018-09-18T08:02:06.894Z,24.64
2018-09-18T08:04:35.114Z,24.00
2018-09-18T08:07:03.941Z,24.19
2018-09-18T08:09:32.183Z,24.03
2018-09-18T08:12:00.407Z,24.04
2018-09-18T08:14:28.618Z,24.43
2018-09-18T08:16:56.855Z,24.54
2018-09-18T08:19:25.180Z,24.67
2018-09-18T08:21:53.304Z,25.07
2018-09-18T08:24:21.513Z,24.93
2018-09-18T08:26:49.762Z,24.84
2018-09-18T08:29:17.961Z,25.20
2018-09-18T08:31:48.210Z,25.35
2018-09-18T08:34:16.441Z,25.50
2018-09-18T08:36:44.650Z,25.55
2018-09-18T08:39:12.878Z,25.63
2018-09-18T08:41:41.140Z,25.40
2018-09-18T08:44:09.369Z,25.54
2018-09-18T08:46:37.585Z,25.41
2018-09-18T08:49:05.860Z,25.58
2018-09-18T08:51:35.224Z,25.86
2018-09-18T08:54:03.450Z,25.82
2018-09-18T08:56:31.726Z,25.91
2018-09-18T08:58:59.980Z,26.44
2018-09-18T09:01:28.215Z,26.18
2018-09-18T09:03:56.524Z,25.92
2018-09-18T09:06:24.720Z,26.09
2018-09-18T09:08:53.133Z,26.15
2018-09-18T09:11:21.179Z,26.14
2018-09-18T09:13:49.407Z,26.23
2018-09-18T09:16:17.646Z,26.30
2018-09-18T09:18:45.873Z,26.16
2018-09-18T09:21:14.198Z,26.15
2018-09-18T09:23:42.332Z,26.15
2018-09-18T09:26:10.574Z,26.45
2018-09-18T09:28:38.829Z,26.63
2018-09-18T09:31:07.097Z,26.61
2018-09-18T09:33:35.354Z,26.32
2018-09-18T09:36:03.565Z,26.49
2018-09-18T09:38:31.803Z,26.55
2018-09-18T09:41:01.108Z,26.62
2018-09-18T09:43:29.345Z,26.53
2018-09-18T09:45:57.590Z,26.85
2018-09-18T09:48:25.821Z,26.71
2018-09-18T09:50:54.093Z,26.95
2018-09-18T09:53:22.333Z,26.94
2018-09-18T09:55:50.566Z,27.11
2018-09-18T09:58:18.798Z,27.01
2018-09-18T10:01:53.821Z,27.26
2018-09-18T10:04:22.134Z,27.26
2018-09-18T10:06:50.361Z,27.36
2018-09-18T10:09:18.576Z,27.38
2018-09-18T10:11:46.807Z,27.73
2018-09-18T10:14:15.072Z,27.83
2018-09-18T10:16:43.277Z,27.58
2018-09-18T10:19:12.532Z,27.70
2018-09-18T10:21:40.787Z,27.79
2018-09-18T10:24:09.787Z,27.87
2018-09-18T10:26:38.096Z,27.88
2018-09-18T10:29:06.412Z,27.91
2018-09-18T10:31:34.597Z,27.91
2018-09-18T10:34:02.846Z,27.80
2018-09-18T10:36:31.058Z,27.79
2018-09-18T10:38:59.281Z,27.98
2018-09-18T10:41:27.805Z,27.89
2018-09-18T10:43:56.078Z,28.22
2018-09-18T10:46:24.722Z,28.09
2018-09-18T10:48:55.753Z,28.29
2018-09-18T10:51:23.991Z,28.46
2018-09-18T10:53:52.226Z,28.50
2018-09-18T10:56:20.456Z,28.59
2018-09-18T10:58:48.678Z,28.65
2018-09-18T11:01:17.016Z,28.55
2018-09-18T11:03:45.223Z,28.63
2018-09-18T11:06:13.921Z,28.85
2018-09-18T11:08:42.127Z,28.73
2018-09-18T11:11:10.382Z,28.88
2018-09-18T11:13:38.602Z,28.86
2018-09-18T11:16:07.265Z,28.96
2018-09-18T11:18:35.344Z,28.98
2018-09-18T11:21:03.682Z,29.16
2018-09-18T11:23:31.958Z,29.09
2018-09-18T11:26:00.142Z,29.19
2018-09-18T11:28:28.377Z,29.37
2018-09-18T11:30:56.608Z,29.41
2018-09-18T11:33:24.880Z,29.73
2018-09-18T11:35:53.088Z,29.86
2018-09-18T11:38:21.303Z,29.83
2018-09-18T11:40:49.566Z,29.95
2018-09-18T11:43:17.784Z,30.07
2018-09-18T11:45:46.172Z,30.30
2018-09-18T11:48:14.262Z,30.46
2018-09-18T11:50:43.546Z,30.37
2018-09-18T11:53:11.770Z,30.57
2018-09-18T11:55:41.141Z,30.75
2018-09-18T11:58:12.823Z,30.84
2018-09-18T12:00:43.519Z,30.89
2018-09-18T12:03:12.798Z,31.01
2018-09-18T12:05:43.137Z,31.08
2018-09-18T12:08:13.725Z,31.17
2018-09-18T12:10:43.903Z,31.36
2018-09-18T12:13:14.103Z,31.22
2018-09-18T12:15:43.396Z,31.28
2018-09-18T12:18:12.691Z,31.42
2018-09-18T12:20:41.846Z,31.44
2018-09-18T12:23:10.934Z,31.45
2018-09-18T12:25:40.057Z,31.61
2018-09-18T12:28:09.188Z,31.73
2018-09-18T12:30:38.414Z,31.46
2018-09-18T12:33:09.053Z,31.62
2018-09-18T12:35:39.202Z,31.94
2018-09-18T12:38:09.158Z,32.01
2018-09-18T12:40:38.452Z,32.02
2018-09-18T12:43:07.737Z,32.25
2018-09-18T12:45:36.876Z,32.11
2018-09-18T12:48:06.251Z,32.14
2018-09-18T12:50:35.684Z,32.44
2018-09-18T12:53:04.687Z,32.43
2018-09-18T12:55:34.898Z,32.47
2018-09-18T12:58:06.781Z,32.55
2018-09-18T13:00:36.801Z,32.69
2018-09-18T13:03:05.614Z,32.72
2018-09-18T13:05:36.071Z,32.78
2018-09-18T13:08:04.341Z,32.63
2018-09-18T13:10:32.606Z,32.88
2018-09-18T13:13:00.827Z,32.69
2018-09-18T13:15:29.085Z,32.89
2018-09-18T13:17:57.334Z,33.08
2018-09-18T13:20:25.601Z,32.72
2018-09-18T13:22:53.894Z,32.72
2018-09-18T13:25:22.151Z,32.80
2018-09-18T13:27:50.502Z,32.86
2018-09-18T13:30:19.816Z,32.89
2018-09-18T13:32:48.070Z,32.98
2018-09-18T13:35:16.273Z,33.09
2018-09-18T13:37:46.548Z,33.17
2018-09-18T13:40:14.819Z,33.11
2018-09-18T13:42:43.037Z,33.10
2018-09-18T13:45:11.266Z,32.85
2018-09-18T13:47:39.501Z,32.64
2018-09-18T13:50:08.189Z,32.37
2018-09-18T13:52:36.435Z,32.33
2018-09-18T13:55:04.690Z,32.06
2018-09-18T13:57:32.938Z,32.17
2018-09-18T14:00:01.277Z,32.55
2018-09-18T14:02:29.533Z,32.43
2018-09-18T14:04:58.813Z,32.41
2018-09-18T14:07:26.958Z,32.23
2018-09-18T14:09:55.210Z,32.18
2018-09-18T14:12:23.429Z,32.07
2018-09-18T14:14:51.700Z,32.11
2018-09-18T14:17:19.902Z,32.20
2018-09-18T14:19:48.133Z,32.11
2018-09-18T14:22:16.343Z,32.03
2018-09-18T14:24:44.586Z,31.92
2018-09-18T14:27:12.797Z,32.06
2018-09-18T14:29:41.104Z,32.15
2018-09-18T14:32:10.417Z,32.36
2018-09-18T14:34:38.753Z,32.56
2018-09-18T14:37:07.074Z,32.30
2018-09-18T14:39:35.301Z,32.13
2018-09-18T14:42:03.542Z,31.94
2018-09-18T14:44:31.793Z,31.90
2018-09-18T14:47:00.093Z,31.81
2018-09-18T14:49:28.228Z,31.85
2018-09-18T14:51:56.570Z,32.17
2018-09-18T14:54:24.783Z,32.28
2018-09-18T14:56:54.079Z,32.41
2018-09-18T14:59:22.402Z,32.37
2018-09-18T15:01:50.714Z,32.16
2018-09-18T15:04:18.961Z,32.07
2018-09-18T15:06:47.281Z,32.00
2018-09-18T15:09:15.466Z,31.80
2018-09-18T15:11:43.678Z,31.87
2018-09-18T15:14:11.898Z,31.58
2018-09-18T15:16:40.143Z,31.45
2018-09-18T15:19:08.914Z,31.39
2018-09-18T15:21:37.140Z,31.42
2018-09-18T15:24:05.385Z,31.53
2018-09-18T15:26:33.602Z,31.39
2018-09-18T15:29:01.837Z,31.32
2018-09-18T15:31:30.109Z,31.19
2018-09-18T15:33:58.393Z,31.13
2018-09-18T15:36:27.606Z,31.15
2018-09-18T15:38:55.848Z,31.05
2018-09-18T15:41:24.083Z,31.03
2018-09-18T15:43:52.546Z,30.84
2018-09-18T15:46:20.774Z,30.81
2018-09-18T15:48:49.051Z,30.72
2018-09-18T15:51:17.384Z,30.76
2018-09-18T15:53:45.610Z,30.65
2018-09-18T15:56:13.831Z,30.67
2018-09-18T15:58:42.094Z,30.68
2018-09-18T16:01:10.361Z,30.76
2018-09-18T16:03:38.589Z,30.62
2018-09-18T16:06:06.809Z,30.59
2018-09-18T16:08:35.067Z,30.63
2018-09-18T16:11:03.339Z,30.68
2018-09-18T16:13:31.579Z,30.72
2018-09-18T16:16:00.202Z,30.85
2018-09-18T16:18:29.192Z,30.79
2018-09-18T16:20:57.713Z,30.85
2018-09-18T16:23:25.949Z,30.80
2018-09-18T16:25:54.182Z,30.82
2018-09-18T16:28:22.399Z,30.77
2018-09-18T16:30:51.840Z,30.67
2018-09-18T16:33:19.935Z,30.58
2018-09-18T16:35:48.201Z,30.40
2018-09-18T16:38:16.438Z,30.27
2018-09-18T16:40:44.736Z,30.13
2018-09-18T16:43:12.914Z,30.06
2018-09-18T16:45:41.162Z,29.96
2018-09-18T16:48:09.493Z,29.95
2018-09-18T16:50:37.809Z,29.87
2018-09-18T16:53:06.084Z,29.89
2018-09-18T16:55:34.289Z,29.92
2018-09-18T16:58:02.502Z,29.66
2018-09-18T17:00:30.739Z,29.70
2018-09-18T17:02:58.929Z,29.72
2018-09-18T17:05:27.189Z,29.63
2018-09-18T17:07:57.426Z,29.46
2018-09-18T17:10:25.759Z,29.30
2018-09-18T17:12:53.940Z,29.43
2018-09-18T17:15:22.179Z,29.35
2018-09-18T17:17:50.398Z,29.23
2018-09-18T17:20:18.621Z,29.30
2018-09-18T17:22:46.843Z,29.25
2018-09-18T17:25:15.075Z,29.27
2018-09-18T17:27:43.284Z,29.20
2018-09-18T17:30:11.562Z,29.16
2018-09-18T17:32:39.805Z,29.13
2018-09-18T17:35:08.315Z,29.01
2018-09-18T17:37:36.793Z,28.91
2018-09-18T17:40:05.155Z,28.87
2018-09-18T17:42:33.363Z,28.79
2018-09-18T17:45:01.974Z,28.66
2018-09-18T17:47:30.235Z,28.60
2018-09-18T17:49:58.411Z,28.54
2018-09-18T17:52:26.654Z,28.35
2018-09-18T17:54:54.886Z,28.23
2018-09-18T17:57:23.095Z,28.03
2018-09-18T17:59:51.318Z,28.03
2018-09-18T18:02:19.837Z,27.82
2018-09-18T18:04:48.055Z,27.81
2018-09-18T18:07:16.296Z,27.70
2018-09-18T18:09:44.519Z,27.64
2018-09-18T18:12:12.751Z,27.48
2018-09-18T18:14:41.031Z,27.49
2018-09-18T18:17:09.272Z,27.43
2018-09-18T18:19:37.482Z,27.39
2018-09-18T18:22:05.970Z,27.28
2018-09-18T18:24:34.177Z,27.03
2018-09-18T18:27:02.406Z,27.08
2018-09-18T18:29:30.655Z,27.06
2018-09-18T18:31:58.831Z,27.08
2018-09-18T18:34:27.037Z,26.95
2018-09-18T18:36:55.270Z,27.01
2018-09-18T18:39:23.505Z,26.87
2018-09-18T18:41:51.755Z,26.84
2018-09-18T18:44:20.026Z,26.56
2018-09-18T18:46:48.240Z,26.46
2018-09-18T18:49:16.461Z,26.42
2018-09-18T18:51:44.675Z,26.34
2018-09-18T18:54:12.887Z,26.40
2018-09-18T18:56:41.198Z,26.40
2018-09-18T18:59:09.362Z,26.22
2018-09-18T19:01:37.614Z,26.21
2018-09-18T19:04:05.865Z,26.12
2018-09-18T19:06:34.312Z,26.18
2018-09-18T19:09:02.514Z,26.08
2018-09-18T19:11:30.798Z,26.11
2018-09-18T19:13:59.005Z,25.86
2018-09-18T19:16:27.280Z,26.08
2018-09-18T19:18:55.563Z,26.08
2018-09-18T19:21:29.296Z,26.05
2018-09-18T19:23:57.562Z,26.15
2018-09-18T19:26:25.786Z,26.08
2018-09-18T19:28:54.696Z,26.17
2018-09-18T19:31:22.901Z,26.11
2018-09-18T19:33:51.280Z,26.00
2018-09-18T19:36:19.507Z,26.11
2018-09-18T19:38:47.721Z,26.12
2018-09-18T19:41:15.952Z,26.07
2018-09-18T19:43:44.162Z,26.10
2018-09-18T19:46:12.727Z,26.10
2018-09-18T19:48:41.213Z,26.07
2018-09-18T19:51:09.471Z,26.03
2018-09-18T19:53:37.751Z,26.07
2018-09-18T19:56:06.169Z,25.93
2018-09-18T19:58:35.431Z,25.88
2018-09-18T20:01:03.740Z,25.92
2018-09-18T20:03:31.962Z,25.83
2018-09-18T20:06:00.179Z,25.84
2018-09-18T20:08:28.435Z,25.80
2018-09-18T20:10:56.658Z,25.66
2018-09-18T20:13:24.906Z,25.20
2018-09-18T20:15:53.257Z,24.89
2018-09-18T20:18:21.606Z,25.21
2018-09-18T20:20:49.925Z,25.26
2018-09-18T20:23:18.113Z,25.31
2018-09-18T20:25:47.648Z,25.35
2018-09-18T20:28:15.880Z,25.35
2018-09-18T20:30:44.126Z,25.33
2018-09-18T20:33:13.422Z,25.18
2018-09-18T20:35:41.709Z,25.16
2018-09-18T20:38:09.903Z,25.14
2018-09-18T20:40:38.221Z,24.86
2018-09-18T20:43:06.701Z,24.92
2018-09-18T20:45:34.938Z,24.80
2018-09-18T20:48:06.625Z,24.57
2018-09-18T20:50:34.927Z,24.74
2018-09-18T20:53:03.074Z,24.47
2018-09-18T20:55:31.313Z,24.56
2018-09-18T20:58:00.630Z,24.45
2018-09-18T21:00:28.871Z,24.28
2018-09-18T21:02:57.103Z,23.90
2018-09-18T21:05:25.348Z,24.18
2018-09-18T21:07:53.592Z,24.19
2018-09-18T21:10:21.828Z,24.12
2018-09-18T21:12:50.064Z,23.92
2018-09-18T21:15:18.286Z,23.79
2018-09-18T21:17:46.545Z,23.84
2018-09-18T21:20:14.775Z,24.05
2018-09-18T21:22:42.986Z,23.72
2018-09-18T21:25:15.010Z,23.88
2018-09-18T21:27:44.458Z,23.74
2018-09-18T21:30:13.141Z,23.92
2018-09-18T21:32:41.387Z,23.78
2018-09-18T21:35:09.921Z,23.66
2018-09-18T21:37:38.303Z,23.79
2018-09-18T21:40:06.556Z,23.60
2018-09-18T21:42:34.812Z,23.67
2018-09-18T21:45:03.381Z,23.54
2018-09-18T21:47:31.657Z,23.08
2018-09-18T21:49:59.884Z,23.33
2018-09-18T21:52:28.094Z,23.25
2018-09-18T21:54:56.462Z,23.12
2018-09-18T21:57:24.669Z,23.13
2018-09-18T21:59:52.888Z,23.23
2018-09-18T22:02:21.158Z,23.00
2018-09-18T22:04:49.385Z,22.95
2018-09-18T22:07:17.601Z,22.97
2018-09-18T22:09:45.815Z,23.00
2018-09-18T22:12:14.040Z,22.92
2018-09-18T22:14:42.259Z,22.97
2018-09-18T22:17:10.503Z,22.84
2018-09-18T22:19:38.710Z,22.89
2018-09-18T22:22:06.992Z,22.55
2018-09-18T22:24:35.236Z,22.58
2018-09-18T22:27:03.486Z,22.44
2018-09-18T22:29:31.694Z,22.46
2018-09-18T22:31:59.917Z,22.41
2018-09-18T22:34:28.239Z,22.18
2018-09-18T22:36:56.430Z,22.40
2018-09-18T22:39:24.675Z,22.44
2018-09-18T22:41:52.853Z,22.34
2018-09-18T22:44:21.070Z,22.22
2018-09-18T22:46:49.290Z,22.42
2018-09-18T22:49:17.494Z,22.53
2018-09-18T22:51:45.719Z,22.41
2018-09-18T22:54:13.925Z,22.10
2018-09-18T22:56:42.137Z,22.39
2018-09-18T22:59:10.345Z,22.33
2018-09-18T23:01:38.584Z,22.17
2018-09-18T23:04:06.827Z,22.30
2018-09-18T23:06:35.053Z,22.32
2018-09-18T23:09:03.324Z,21.88
2018-09-18T23:11:31.527Z,22.17
2018-09-18T23:13:59.745Z,22.23
2018-09-18T23:16:27.973Z,21.99
2018-09-18T23:18:56.259Z,21.88
2018-09-18T23:21:24.435Z,22.17
2018-09-18T23:23:52.655Z,21.85
2018-09-18T23:26:20.870Z,22.24
2018-09-18T23:28:49.083Z,22.03
2018-09-18T23:31:17.303Z,22.07
2018-09-18T23:33:45.745Z,21.95
2018-09-18T23:36:13.962Z,21.99
2018-09-18T23:38:42.217Z,21.98
2018-09-18T23:41:10.417Z,22.11
2018-09-18T23:43:38.635Z,21.87
2018-09-18T23:46:06.902Z,21.96
2018-09-18T23:48:35.187Z,21.93
2018-09-18T23:51:03.362Z,21.81
2018-09-18T23:53:31.603Z,21.61
2018-09-18T23:55:59.814Z,21.67
2018-09-18T23:58:28.026Z,21.83
